Darstellungsparameter: Aktuell verwendete Einstellungen:
Skalierung der Graphiken ... ?
xyx+y,   Skalierungsfaktor:      Skalierung: Modus: x, Faktor: 1
Darstellungszeitraum ... ?
Vom - - bis: - -   Zeitraum: 04.03.2021 - 06.03.2021
Min/Max/Avg-Anzeige ... ?
Zeige MMA aktuell
Zeige MMA Monat
Zeige MMA alles
Zeige --A aktuell
Zeige --A Monat
Zeige --A alles
Keine MMA-Anzeige
MMA:
Minimum Maximum Average (ber die Originaldaten)
MMA-Basis: 14.04.2020 - 16.05.2020
Quicknavigation für Darstellung... ?
Tage:      1T, 2T, 3T, 5T -1T -2T -3T -5T +1T +2T +3T +5T
Wochen: 1W, 2W, 3W -1W -2W -3W +1W +2W +3W
Monate: 1M, 3M, 6M -1M -3M -6M +1M +3M +6M
Jahre:    1J, 3J, 5J, 10J -1J -3J -5J -10J +1J +3J +5J +10J
Nutze für die Darstellung ... ?
Originaldaten oder Mittelwerte auf ...
Stundenbasis Tagesbasis Wochenbasis
Monatsbasis Jahresbasis      Datenbasis: Original-Daten
Darstellen als:
Statistik (Auto) Statistik J:M      Darstellung:
Zur Graphik,    zurück zur Übersicht aller Sensoren.
 
Tabellarische Datenbersicht: ?
 
Sensor: Nr:Datum:Temp:Abs-Feuchte:Windchill:Wind:
Aussen-T/F 1 04-03-2021 00:00:00 7.8 C 6.77 g/m*3 7.8 C 0 km/h
2 04-03-2021 00:05:00 7.8 C 6.77 g/m*3 7.8 C 0 km/h
3 04-03-2021 00:10:00 7.8 C 6.77 g/m*3 7.8 C 0 km/h
4 04-03-2021 00:15:00 7.7 C 6.73 g/m*3 7.7 C 0 km/h
5 04-03-2021 00:20:00 7.6 C 6.69 g/m*3 7.6 C 0 km/h
6 04-03-2021 00:25:00 7.4 C 6.6 g/m*3 7.4 C 0 km/h
7 04-03-2021 00:30:00 7.2 C 6.52 g/m*3 7.2 C 0 km/h
8 04-03-2021 00:35:00 7 C 6.51 g/m*3 7 C 0 km/h
9 04-03-2021 00:40:00 6.8 C 6.42 g/m*3 6.8 C 0 km/h
10 04-03-2021 00:45:00 6.7 C 6.46 g/m*3 6.7 C 0 km/h
11 04-03-2021 00:50:00 6.5 C 6.45 g/m*3 6.5 C 0 km/h
12 04-03-2021 00:55:00 6.4 C 6.41 g/m*3 6.4 C 0 km/h
13 04-03-2021 01:00:00 6.3 C 6.44 g/m*3 6.3 C 0 km/h
14 04-03-2021 01:05:00 6.2 C 6.4 g/m*3 6.2 C 0 km/h
15 04-03-2021 01:10:00 6.1 C 6.36 g/m*3 6.1 C 0 km/h
16 04-03-2021 01:15:00 6.1 C 6.43 g/m*3 6.1 C 0 km/h
17 04-03-2021 01:20:00 6.1 C 6.43 g/m*3 6.1 C 0 km/h
18 04-03-2021 01:25:00 6.1 C 6.5 g/m*3 6.1 C 0 km/h
19 04-03-2021 01:30:00 6.1 C 6.5 g/m*3 6.1 C 0 km/h
20 04-03-2021 01:35:00 6.1 C 6.5 g/m*3 6.1 C 0 km/h
21 04-03-2021 01:40:00 6.2 C 6.55 g/m*3 6.2 C 0 km/h
22 04-03-2021 01:45:00 6.1 C 6.5 g/m*3 6.1 C 0 km/h
23 04-03-2021 01:50:00 6 C 6.39 g/m*3 6 C 0 km/h
24 04-03-2021 01:55:00 5.9 C 6.35 g/m*3 5.9 C 0 km/h
25 04-03-2021 02:00:00 5.8 C 6.3 g/m*3 5.8 C 0 km/h
Sensor: Nr:Datum:Temp:Abs-Feuchte:Windchill:Wind:
Aussen-T/F 26 04-03-2021 02:05:00 5.8 C 6.3 g/m*3 5.8 C 0 km/h
27 04-03-2021 02:10:00 5.7 C 6.26 g/m*3 5.7 C 0 km/h
28 04-03-2021 02:15:00 5.6 C 6.29 g/m*3 5.6 C 0 km/h
29 04-03-2021 02:20:00 5.6 C 6.29 g/m*3 5.6 C 0 km/h
30 04-03-2021 02:25:00 5.5 C 6.25 g/m*3 5.5 C 0 km/h
31 04-03-2021 02:30:00 5.4 C 6.21 g/m*3 5.4 C 0 km/h
32 04-03-2021 02:35:00 5.4 C 6.21 g/m*3 5.4 C 0 km/h
33 04-03-2021 02:40:00 5.3 C 6.17 g/m*3 5.3 C 0 km/h
34 04-03-2021 02:45:00 5.1 C 6.09 g/m*3 5.1 C 0 km/h
35 04-03-2021 02:50:00 5 C 6.05 g/m*3 5 C 0 km/h
36 04-03-2021 02:55:00 4.9 C 6.08 g/m*3 4.9 C 0 km/h
37 04-03-2021 03:00:00 4.8 C 6.04 g/m*3 4.8 C 0 km/h
38 04-03-2021 03:05:00 4.8 C 6.04 g/m*3 4.8 C 0 km/h
39 04-03-2021 03:10:00 4.8 C 6.04 g/m*3 4.8 C 0 km/h
40 04-03-2021 03:15:00 4.7 C 6 g/m*3 4.7 C 0 km/h
41 04-03-2021 03:20:00 4.8 C 6.1 g/m*3 4.8 C 4.8 km/h
42 04-03-2021 03:25:00 4.9 C 6.14 g/m*3 4.9 C 4.8 km/h
43 04-03-2021 03:30:00 4.9 C 6.14 g/m*3 4.9 C 0 km/h
44 04-03-2021 03:35:00 4.8 C 6.04 g/m*3 4.8 C 0 km/h
45 04-03-2021 03:40:00 4.7 C 6 g/m*3 4.7 C 0 km/h
46 04-03-2021 03:45:00 4.6 C 6.02 g/m*3 4.6 C 0 km/h
47 04-03-2021 03:50:00 4.5 C 5.98 g/m*3 4.5 C 0 km/h
48 04-03-2021 03:55:00 4.5 C 5.98 g/m*3 4.5 C 0 km/h
49 04-03-2021 04:00:00 4.5 C 5.98 g/m*3 4.5 C 0 km/h
50 04-03-2021 04:05:00 4.5 C 6.05 g/m*3 4.5 C 0 km/h
Sensor: Nr:Datum:Temp:Abs-Feuchte:Windchill:Wind:
Aussen-T/F 51 04-03-2021 04:10:00 4.6 C 6.09 g/m*3 4.6 C 0 km/h
52 04-03-2021 04:15:00 4.6 C 6.09 g/m*3 4.6 C 0 km/h
53 04-03-2021 04:20:00 4.5 C 6.05 g/m*3 4.5 C 0 km/h
54 04-03-2021 04:25:00 4.5 C 6.05 g/m*3 4.5 C 0 km/h
55 04-03-2021 04:30:00 4.4 C 6.01 g/m*3 4.4 C 0 km/h
56 04-03-2021 04:35:00 4.3 C 5.9 g/m*3 4.3 C 0 km/h
57 04-03-2021 04:40:00 4.3 C 5.97 g/m*3 4.3 C 0 km/h
58 04-03-2021 04:45:00 4.2 C 5.93 g/m*3 4.2 C 0 km/h
59 04-03-2021 04:50:00 4.2 C 5.93 g/m*3 4.2 C 0 km/h
60 04-03-2021 04:55:00 4.3 C 5.97 g/m*3 4.3 C 0 km/h
61 04-03-2021 05:00:00 4.3 C 6.03 g/m*3 4.3 C 0 km/h
62 04-03-2021 05:05:00 4.4 C 6.07 g/m*3 4.4 C 1.6 km/h
63 04-03-2021 05:10:00 4.6 C 6.15 g/m*3 4.6 C 1.6 km/h
64 04-03-2021 05:15:00 4.7 C 6.19 g/m*3 4.7 C 0 km/h
65 04-03-2021 05:20:00 4.7 C 6.19 g/m*3 4.7 C 0 km/h
66 04-03-2021 05:25:00 4.8 C 6.24 g/m*3 4.8 C 0 km/h
67 04-03-2021 05:30:00 4.8 C 6.24 g/m*3 4.8 C 0 km/h
68 04-03-2021 05:35:00 4.8 C 6.24 g/m*3 4.8 C 1.6 km/h
69 04-03-2021 05:40:00 4.8 C 6.24 g/m*3 4.8 C 1.6 km/h
70 04-03-2021 05:45:00 4.8 C 6.24 g/m*3 4.8 C 3.2 km/h
71 04-03-2021 05:50:00 4.8 C 6.17 g/m*3 4.8 C 0 km/h
72 04-03-2021 05:55:00 4.7 C 6.13 g/m*3 4.7 C 0 km/h
73 04-03-2021 06:00:00 4.5 C 6.05 g/m*3 4.5 C 0 km/h
74 04-03-2021 06:05:00 4.4 C 6.01 g/m*3 4.4 C 1.6 km/h
75 04-03-2021 06:10:00 4.3 C 5.97 g/m*3 4.3 C 0 km/h
Sensor: Nr:Datum:Temp:Abs-Feuchte:Windchill:Wind:
Aussen-T/F 76 04-03-2021 06:15:00 4.2 C 5.93 g/m*3 4.2 C 0 km/h
77 04-03-2021 06:20:00 4.1 C 5.89 g/m*3 4.1 C 0 km/h
78 04-03-2021 06:25:00 3.9 C 5.81 g/m*3 3.9 C 0 km/h
79 04-03-2021 06:30:00 4 C 5.85 g/m*3 4 C 0 km/h
80 04-03-2021 06:35:00 3.9 C 5.81 g/m*3 3.9 C 0 km/h
81 04-03-2021 06:40:00 3.7 C 5.73 g/m*3 3.7 C 0 km/h
82 04-03-2021 06:45:00 3.7 C 5.73 g/m*3 3.7 C 0 km/h
83 04-03-2021 06:50:00 3.7 C 5.8 g/m*3 3.7 C 0 km/h
84 04-03-2021 06:55:00 3.6 C 5.69 g/m*3 3.6 C 0 km/h
85 04-03-2021 07:00:00 3.6 C 5.76 g/m*3 3.6 C 0 km/h
86 04-03-2021 07:05:00 3.4 C 5.62 g/m*3 3.4 C 0 km/h
87 04-03-2021 07:10:00 3.4 C 5.68 g/m*3 3.4 C 0 km/h
88 04-03-2021 07:15:00 3.3 C 5.64 g/m*3 3.3 C 0 km/h
89 04-03-2021 07:20:00 3.3 C 5.64 g/m*3 3.3 C 0 km/h
90 04-03-2021 07:25:00 3.3 C 5.64 g/m*3 3.3 C 0 km/h
91 04-03-2021 07:30:00 3.4 C 5.74 g/m*3 3.4 C 0 km/h
92 04-03-2021 07:35:00 3.7 C 5.86 g/m*3 3.7 C 1.6 km/h
93 04-03-2021 07:40:00 3.9 C 5.94 g/m*3 3.9 C 0 km/h
94 04-03-2021 07:45:00 3.9 C 5.94 g/m*3 3.9 C 0 km/h
95 04-03-2021 07:50:00 4 C 5.98 g/m*3 4 C 0 km/h
96 04-03-2021 07:55:00 4.1 C 6.02 g/m*3 4.1 C 0 km/h
97 04-03-2021 08:00:00 4.2 C 6.12 g/m*3 4.2 C 0 km/h
98 04-03-2021 08:05:00 4.3 C 6.16 g/m*3 4.3 C 0 km/h
99 04-03-2021 08:10:00 4.4 C 6.2 g/m*3 4.4 C 0 km/h
100 04-03-2021 08:15:00 4.5 C 6.24 g/m*3 4.5 C 0 km/h
Sensor: Nr:Datum:Temp:Abs-Feuchte:Windchill:Wind:
Aussen-T/F 101 04-03-2021 08:20:00 4.6 C 6.29 g/m*3 4.6 C 1.6 km/h
102 04-03-2021 08:25:00 4.7 C 6.26 g/m*3 4.7 C 1.6 km/h
103 04-03-2021 08:30:00 4.8 C 6.3 g/m*3 4.8 C 0 km/h
104 04-03-2021 08:35:00 4.9 C 6.35 g/m*3 4.9 C 0 km/h
105 04-03-2021 08:40:00 5 C 6.39 g/m*3 5 C 0 km/h
106 04-03-2021 08:45:00 5.1 C 6.43 g/m*3 5.1 C 0 km/h
107 04-03-2021 08:50:00 5.2 C 6.47 g/m*3 5.2 C 0 km/h
108 04-03-2021 08:55:00 5.3 C 6.52 g/m*3 5.3 C 4.8 km/h
109 04-03-2021 09:00:00 5.4 C 6.49 g/m*3 5.4 C 1.6 km/h
110 04-03-2021 09:05:00 5.5 C 6.53 g/m*3 5.5 C 1.6 km/h
111 04-03-2021 09:10:00 5.7 C 6.62 g/m*3 5.7 C 1.6 km/h
112 04-03-2021 09:15:00 5.9 C 6.71 g/m*3 5.9 C 0 km/h
113 04-03-2021 09:20:00 6.1 C 6.79 g/m*3 6.1 C 0 km/h
114 04-03-2021 09:25:00 6.2 C 6.77 g/m*3 6.2 C 1.6 km/h
115 04-03-2021 09:30:00 6.2 C 6.77 g/m*3 6.2 C 0 km/h
116 04-03-2021 09:35:00 6.3 C 6.81 g/m*3 6.3 C 0 km/h
117 04-03-2021 09:40:00 6.4 C 6.78 g/m*3 6.4 C 0 km/h
118 04-03-2021 09:45:00 6.6 C 6.87 g/m*3 6.6 C 0 km/h
119 04-03-2021 09:50:00 6.7 C 6.91 g/m*3 6.7 C 0 km/h
120 04-03-2021 09:55:00 6.9 C 7.01 g/m*3 6.9 C 0 km/h
121 04-03-2021 10:00:00 7.2 C 7.14 g/m*3 7.2 C 0 km/h
122 04-03-2021 10:05:00 7.6 C 7.25 g/m*3 7.6 C 1.6 km/h
123 04-03-2021 10:10:00 7.8 C 7.26 g/m*3 7.8 C 1.6 km/h
124 04-03-2021 10:15:00 8 C 7.36 g/m*3 8 C 0 km/h
125 04-03-2021 10:20:00 8.3 C 7.5 g/m*3 8.3 C 1.6 km/h
Sensor: Nr:Datum:Temp:Abs-Feuchte:Windchill:Wind:
Aussen-T/F 126 04-03-2021 10:25:00 8.6 C 7.56 g/m*3 8.6 C 4.8 km/h
127 04-03-2021 10:30:00 8.9 C 7.53 g/m*3 7.69 C 8.1 km/h
128 04-03-2021 10:35:00 9.2 C 7.5 g/m*3 8.45 C 6.4 km/h
129 04-03-2021 10:40:00 9.3 C 7.46 g/m*3 9.3 C 3.2 km/h
130 04-03-2021 10:45:00 9.3 C 7.46 g/m*3 9.3 C 4.8 km/h
131 04-03-2021 10:50:00 9.3 C 7.37 g/m*3 9.3 C 3.2 km/h
132 04-03-2021 10:55:00 9.3 C 7.46 g/m*3 9.3 C 4.8 km/h
133 04-03-2021 11:00:00 9.3 C 7.55 g/m*3 9.3 C 0 km/h
134 04-03-2021 11:05:00 9.3 C 7.55 g/m*3 9.3 C 0 km/h
135 04-03-2021 11:10:00 9.4 C 7.6 g/m*3 9.4 C 0 km/h
136 04-03-2021 11:15:00 9.5 C 7.55 g/m*3 9.5 C 1.6 km/h
137 04-03-2021 11:20:00 9.6 C 7.6 g/m*3 9.6 C 0 km/h
138 04-03-2021 11:25:00 9.7 C 7.65 g/m*3 9.7 C 0 km/h
139 04-03-2021 11:30:00 9.8 C 7.61 g/m*3 9.8 C 0 km/h
140 04-03-2021 11:35:00 9.8 C 7.7 g/m*3 9.8 C 1.6 km/h
141 04-03-2021 11:40:00 9.9 C 7.66 g/m*3 9.9 C 4.8 km/h
142 04-03-2021 11:45:00 10 C 7.8 g/m*3 9.37 C 6.4 km/h
143 04-03-2021 11:50:00 10.2 C 7.9 g/m*3 8.66 C 11.3 km/h
144 04-03-2021 11:55:00 10.2 C 7.9 g/m*3 8.66 C 11.3 km/h
145 04-03-2021 12:00:00 10.2 C 7.9 g/m*3 9.6 C 6.4 km/h
146 04-03-2021 12:05:00 10.2 C 7.8 g/m*3 8.92 C 9.7 km/h
147 04-03-2021 12:10:00 10.2 C 7.9 g/m*3 8.66 C 11.3 km/h
148 04-03-2021 12:15:00 10.3 C 7.95 g/m*3 8.55 C 12.9 km/h
149 04-03-2021 12:20:00 10.5 C 8.05 g/m*3 9.57 C 8.1 km/h
150 04-03-2021 12:25:00 10.7 C 8.05 g/m*3 9.52 C 9.7 km/h
Sensor: Nr:Datum:Temp:Abs-Feuchte:Windchill:Wind:
Aussen-T/F 151 04-03-2021 12:30:00 10.8 C 8.11 g/m*3 10.29 C 6.4 km/h
152 04-03-2021 12:35:00 10.7 C 8.05 g/m*3 9.04 C 12.9 km/h
153 04-03-2021 12:40:00 10.7 C 8.05 g/m*3 10.18 C 6.4 km/h
154 04-03-2021 12:45:00 10.8 C 8.11 g/m*3 9.93 C 8.1 km/h
155 04-03-2021 12:50:00 10.8 C 8.11 g/m*3 10.29 C 6.4 km/h
156 04-03-2021 12:55:00 10.8 C 8.11 g/m*3 10.8 C 1.6 km/h
157 04-03-2021 13:00:00 10.7 C 8.05 g/m*3 10.7 C 4.8 km/h
158 04-03-2021 13:05:00 10.7 C 8.15 g/m*3 10.7 C 1.6 km/h
159 04-03-2021 13:10:00 10.7 C 8.15 g/m*3 10.7 C 4.8 km/h
160 04-03-2021 13:15:00 11 C 8.21 g/m*3 10.16 C 8.1 km/h
161 04-03-2021 13:20:00 11.2 C 8.21 g/m*3 11.2 C 6.4 km/h
162 04-03-2021 13:25:00 11.3 C 8.26 g/m*3 11.3 C 0 km/h
163 04-03-2021 13:30:00 11.3 C 8.26 g/m*3 11.3 C 0 km/h
164 04-03-2021 13:35:00 11.4 C 8.21 g/m*3 11.4 C 0 km/h
165 04-03-2021 13:40:00 11.4 C 8.21 g/m*3 11.4 C 1.6 km/h
166 04-03-2021 13:45:00 11.3 C 8.16 g/m*3 11.3 C 1.6 km/h
167 04-03-2021 13:50:00 11.3 C 8.16 g/m*3 11.3 C 1.6 km/h
168 04-03-2021 13:55:00 11.3 C 8.16 g/m*3 11.3 C 4.8 km/h
169 04-03-2021 14:00:00 11.2 C 8.21 g/m*3 11.2 C 6.4 km/h
170 04-03-2021 14:05:00 11.2 C 8.21 g/m*3 11.2 C 0 km/h
171 04-03-2021 14:10:00 11.3 C 8.26 g/m*3 11.3 C 3.2 km/h
172 04-03-2021 14:15:00 11.3 C 8.26 g/m*3 11.3 C 4.8 km/h
173 04-03-2021 14:20:00 11.3 C 8.26 g/m*3 11.3 C 3.2 km/h
174 04-03-2021 14:25:00 11.3 C 8.26 g/m*3 11.3 C 1.6 km/h
175 04-03-2021 14:30:00 11.3 C 8.16 g/m*3 11.3 C 3.2 km/h
Sensor: Nr:Datum:Temp:Abs-Feuchte:Windchill:Wind:
Aussen-T/F 176 04-03-2021 14:35:00 11.3 C 8.16 g/m*3 11.3 C 1.6 km/h
177 04-03-2021 14:40:00 11.3 C 8.16 g/m*3 11.3 C 1.6 km/h
178 04-03-2021 14:45:00 11.2 C 8.11 g/m*3 11.2 C 6.4 km/h
179 04-03-2021 14:50:00 11.1 C 8.16 g/m*3 11.1 C 6.4 km/h
180 04-03-2021 14:55:00 11 C 8.21 g/m*3 10.52 C 6.4 km/h
181 04-03-2021 15:00:00 10.9 C 8.26 g/m*3 10.9 C 3.2 km/h
182 04-03-2021 15:05:00 10.8 C 8.2 g/m*3 10.8 C 4.8 km/h
183 04-03-2021 15:10:00 10.6 C 8.2 g/m*3 10.6 C 1.6 km/h
184 04-03-2021 15:15:00 10.6 C 8.39 g/m*3 10.6 C 1.6 km/h
185 04-03-2021 15:20:00 10.3 C 8.14 g/m*3 9.72 C 6.4 km/h
186 04-03-2021 15:25:00 10.2 C 8.18 g/m*3 9.22 C 8.1 km/h
187 04-03-2021 15:30:00 10 C 8.17 g/m*3 8.19 C 12.9 km/h
188 04-03-2021 15:35:00 9.7 C 8.11 g/m*3 8.33 C 9.7 km/h
189 04-03-2021 15:40:00 9.4 C 8.05 g/m*3 7.04 C 16.1 km/h
190 04-03-2021 15:45:00 9.2 C 7.95 g/m*3 9.2 C 4.8 km/h
191 04-03-2021 15:50:00 9.1 C 7.99 g/m*3 9.1 C 4.8 km/h
192 04-03-2021 15:55:00 8.9 C 7.88 g/m*3 8.9 C 1.6 km/h
193 04-03-2021 16:00:00 8.8 C 7.92 g/m*3 8.8 C 0 km/h
194 04-03-2021 16:05:00 8.8 C 7.92 g/m*3 8.8 C 0 km/h
195 04-03-2021 16:10:00 8.7 C 7.96 g/m*3 8.7 C 0 km/h
196 04-03-2021 16:15:00 8.7 C 7.96 g/m*3 8.7 C 0 km/h
197 04-03-2021 16:20:00 8.7 C 7.96 g/m*3 8.7 C 0 km/h
198 04-03-2021 16:25:00 8.7 C 7.96 g/m*3 8.7 C 0 km/h
199 04-03-2021 16:30:00 8.7 C 7.96 g/m*3 8.7 C 0 km/h
200 04-03-2021 16:35:00 8.7 C 8.04 g/m*3 8.7 C 0 km/h
Sensor: Nr:Datum:Temp:Abs-Feuchte:Windchill:Wind:
Aussen-T/F 201 04-03-2021 16:40:00 8.8 C 8.09 g/m*3 8.8 C 0 km/h
202 04-03-2021 16:45:00 8.8 C 8.09 g/m*3 8.8 C 0 km/h
203 04-03-2021 16:50:00 8.8 C 8.09 g/m*3 8.8 C 0 km/h
204 04-03-2021 16:55:00 8.7 C 8.04 g/m*3 8.7 C 0 km/h
205 04-03-2021 17:00:00 8.7 C 8.04 g/m*3 8.7 C 0 km/h
206 04-03-2021 17:05:00 8.7 C 8.04 g/m*3 8.7 C 1.6 km/h
207 04-03-2021 17:10:00 8.8 C 8.09 g/m*3 8.8 C 3.2 km/h
208 04-03-2021 17:15:00 8.6 C 7.99 g/m*3 5.86 C 17.7 km/h
209 04-03-2021 17:20:00 8.3 C 7.75 g/m*3 5.31 C 19.3 km/h
210 04-03-2021 17:25:00 8 C 7.61 g/m*3 4.93 C 19.3 km/h
211 04-03-2021 17:30:00 7.9 C 7.56 g/m*3 5.63 C 12.9 km/h
212 04-03-2021 17:35:00 7.7 C 7.46 g/m*3 5.38 C 12.9 km/h
213 04-03-2021 17:40:00 7.5 C 7.36 g/m*3 5.14 C 12.9 km/h
214 04-03-2021 17:45:00 7.4 C 7.32 g/m*3 5.28 C 11.3 km/h
215 04-03-2021 17:50:00 7.2 C 7.22 g/m*3 4.31 C 16.1 km/h
216 04-03-2021 17:55:00 7.2 C 7.22 g/m*3 5.35 C 9.7 km/h
217 04-03-2021 18:00:00 7.2 C 7.22 g/m*3 7.2 C 1.6 km/h
218 04-03-2021 18:05:00 7.1 C 7.18 g/m*3 7.1 C 3.2 km/h
219 04-03-2021 18:10:00 7.1 C 7.18 g/m*3 4.92 C 11.3 km/h
220 04-03-2021 18:15:00 7 C 7.21 g/m*3 5.9 C 6.4 km/h
221 04-03-2021 18:20:00 6.8 C 7.04 g/m*3 5.67 C 6.4 km/h
222 04-03-2021 18:25:00 6.7 C 7.07 g/m*3 4.17 C 12.9 km/h
223 04-03-2021 18:30:00 6.5 C 6.9 g/m*3 4.2 C 11.3 km/h
224 04-03-2021 18:35:00 6.4 C 6.93 g/m*3 6.4 C 3.2 km/h
225 04-03-2021 18:40:00 6.3 C 6.88 g/m*3 3.43 C 14.5 km/h
Sensor: Nr:Datum:Temp:Abs-Feuchte:Windchill:Wind:
Aussen-T/F 226 04-03-2021 18:45:00 6.1 C 6.79 g/m*3 4.04 C 9.7 km/h
227 04-03-2021 18:50:00 5.9 C 6.71 g/m*3 4.17 C 8.1 km/h
228 04-03-2021 18:55:00 5.8 C 6.66 g/m*3 5.8 C 3.2 km/h
229 04-03-2021 19:00:00 5.7 C 6.62 g/m*3 4.4 C 6.4 km/h
230 04-03-2021 19:05:00 5.7 C 6.62 g/m*3 5.7 C 3.2 km/h
231 04-03-2021 19:10:00 5.6 C 6.65 g/m*3 5.6 C 0 km/h
232 04-03-2021 19:15:00 5.6 C 6.65 g/m*3 5.6 C 0 km/h
233 04-03-2021 19:20:00 5.4 C 6.49 g/m*3 2.87 C 11.3 km/h
234 04-03-2021 19:25:00 5.3 C 6.45 g/m*3 2.75 C 11.3 km/h
235 04-03-2021 19:30:00 5.1 C 6.36 g/m*3 3.71 C 6.4 km/h
236 04-03-2021 19:35:00 5 C 6.32 g/m*3 3.59 C 6.4 km/h
237 04-03-2021 19:40:00 4.9 C 6.28 g/m*3 4.9 C 3.2 km/h
238 04-03-2021 19:45:00 4.8 C 6.17 g/m*3 2.15 C 11.3 km/h
239 04-03-2021 19:50:00 4.7 C 6.13 g/m*3 2.37 C 9.7 km/h
240 04-03-2021 19:55:00 4.6 C 6.09 g/m*3 1.91 C 11.3 km/h
241 04-03-2021 20:00:00 4.5 C 6.05 g/m*3 1.79 C 11.3 km/h
242 04-03-2021 20:05:00 4.4 C 6.01 g/m*3 2.01 C 9.7 km/h
243 04-03-2021 20:10:00 4.4 C 6.01 g/m*3 2.01 C 9.7 km/h
244 04-03-2021 20:15:00 4.3 C 5.97 g/m*3 2.78 C 6.4 km/h
245 04-03-2021 20:20:00 4.2 C 5.93 g/m*3 2.17 C 8.1 km/h
246 04-03-2021 20:25:00 4.2 C 5.93 g/m*3 2.17 C 8.1 km/h
247 04-03-2021 20:30:00 4.1 C 5.89 g/m*3 1.31 C 11.3 km/h
248 04-03-2021 20:35:00 4 C 5.85 g/m*3 1.93 C 8.1 km/h
249 04-03-2021 20:40:00 4 C 5.91 g/m*3 1.93 C 8.1 km/h
250 04-03-2021 20:45:00 4 C 5.91 g/m*3 2.44 C 6.4 km/h
Sensor: Nr:Datum:Temp:Abs-Feuchte:Windchill:Wind:
Aussen-T/F 251 04-03-2021 20:50:00 4 C 5.91 g/m*3 1.18 C 11.3 km/h
252 04-03-2021 20:55:00 4 C 5.91 g/m*3 1.93 C 8.1 km/h
253 04-03-2021 21:00:00 4 C 5.91 g/m*3 1.53 C 9.7 km/h
254 04-03-2021 21:05:00 4 C 5.91 g/m*3 1.18 C 11.3 km/h
255 04-03-2021 21:10:00 4 C 5.91 g/m*3 1.18 C 11.3 km/h
256 04-03-2021 21:15:00 4 C 5.91 g/m*3 2.44 C 6.4 km/h
257 04-03-2021 21:20:00 4.1 C 5.95 g/m*3 4.1 C 4.8 km/h
258 04-03-2021 21:25:00 4.1 C 5.95 g/m*3 2.05 C 8.1 km/h
259 04-03-2021 21:30:00 4.1 C 5.95 g/m*3 1.65 C 9.7 km/h
260 04-03-2021 21:35:00 4.1 C 5.95 g/m*3 2.05 C 8.1 km/h
261 04-03-2021 21:40:00 4.1 C 5.95 g/m*3 1.31 C 11.3 km/h
262 04-03-2021 21:45:00 4.1 C 5.95 g/m*3 1.65 C 9.7 km/h
263 04-03-2021 21:50:00 4.1 C 5.95 g/m*3 2.55 C 6.4 km/h
264 04-03-2021 21:55:00 4.1 C 5.95 g/m*3 2.55 C 6.4 km/h
265 04-03-2021 22:00:00 4.1 C 5.95 g/m*3 2.05 C 8.1 km/h
266 04-03-2021 22:05:00 4.1 C 5.95 g/m*3 1.65 C 9.7 km/h
267 04-03-2021 22:10:00 4.1 C 5.95 g/m*3 2.55 C 6.4 km/h
268 04-03-2021 22:15:00 4.1 C 5.95 g/m*3 2.55 C 6.4 km/h
269 04-03-2021 22:20:00 4.1 C 5.95 g/m*3 4.1 C 4.8 km/h
270 04-03-2021 22:25:00 4.1 C 5.95 g/m*3 2.55 C 6.4 km/h
271 04-03-2021 22:30:00 4.1 C 5.95 g/m*3 2.55 C 6.4 km/h
272 04-03-2021 22:35:00 4.1 C 5.95 g/m*3 4.1 C 1.6 km/h
273 04-03-2021 22:40:00 4.2 C 5.99 g/m*3 2.67 C 6.4 km/h
274 04-03-2021 22:45:00 4.2 C 5.99 g/m*3 2.67 C 6.4 km/h
275 04-03-2021 22:50:00 4.2 C 5.99 g/m*3 2.17 C 8.1 km/h
Sensor: Nr:Datum:Temp:Abs-Feuchte:Windchill:Wind:
Aussen-T/F 276 04-03-2021 22:55:00 4.2 C 5.99 g/m*3 2.67 C 6.4 km/h
277 04-03-2021 23:00:00 4.2 C 5.99 g/m*3 2.67 C 6.4 km/h
278 04-03-2021 23:05:00 4.2 C 5.99 g/m*3 4.2 C 4.8 km/h
279 04-03-2021 23:10:00 4.2 C 5.99 g/m*3 2.17 C 8.1 km/h
280 04-03-2021 23:15:00 4.2 C 5.99 g/m*3 4.2 C 3.2 km/h
281 04-03-2021 23:20:00 4.2 C 5.99 g/m*3 4.2 C 0 km/h
282 04-03-2021 23:25:00 4.2 C 5.99 g/m*3 2.67 C 6.4 km/h
283 04-03-2021 23:30:00 4.2 C 5.99 g/m*3 4.2 C 4.8 km/h
284 04-03-2021 23:35:00 4.2 C 5.99 g/m*3 2.67 C 6.4 km/h
285 04-03-2021 23:40:00 4.2 C 5.99 g/m*3 4.2 C 3.2 km/h
286 04-03-2021 23:45:00 4.2 C 5.99 g/m*3 2.67 C 6.4 km/h
287 04-03-2021 23:50:00 4.2 C 5.99 g/m*3 4.2 C 4.8 km/h
288 04-03-2021 23:55:00 4.2 C 5.99 g/m*3 4.2 C 3.2 km/h
289 05-03-2021 00:00:00 4.2 C 5.99 g/m*3 4.2 C 0 km/h
290 05-03-2021 00:05:00 4.2 C 5.99 g/m*3 4.2 C 0 km/h
291 05-03-2021 00:10:00 4.2 C 5.99 g/m*3 4.2 C 1.6 km/h
292 05-03-2021 00:15:00 4.2 C 5.99 g/m*3 4.2 C 0 km/h
293 05-03-2021 00:20:00 4.2 C 5.99 g/m*3 4.2 C 0 km/h
294 05-03-2021 00:25:00 4.2 C 5.99 g/m*3 4.2 C 0 km/h
295 05-03-2021 00:30:00 4.1 C 5.95 g/m*3 4.1 C 0 km/h
296 05-03-2021 00:35:00 4.1 C 5.95 g/m*3 4.1 C 0 km/h
297 05-03-2021 00:40:00 4.1 C 5.95 g/m*3 4.1 C 0 km/h
298 05-03-2021 00:45:00 4.1 C 6.02 g/m*3 4.1 C 0 km/h
299 05-03-2021 00:50:00 4.1 C 6.02 g/m*3 4.1 C 0 km/h
300 05-03-2021 00:55:00 4.1 C 6.02 g/m*3 4.1 C 0 km/h
Sensor: Nr:Datum:Temp:Abs-Feuchte:Windchill:Wind:
Aussen-T/F 301 05-03-2021 01:00:00 4.1 C 6.02 g/m*3 4.1 C 0 km/h
302 05-03-2021 01:05:00 4.1 C 6.02 g/m*3 4.1 C 0 km/h
303 05-03-2021 01:10:00 4.1 C 6.02 g/m*3 4.1 C 0 km/h
304 05-03-2021 01:15:00 4.1 C 6.02 g/m*3 4.1 C 1.6 km/h
305 05-03-2021 01:20:00 4.1 C 6.02 g/m*3 4.1 C 1.6 km/h
306 05-03-2021 01:25:00 4.1 C 6.02 g/m*3 4.1 C 0 km/h
307 05-03-2021 01:30:00 4.1 C 6.02 g/m*3 4.1 C 1.6 km/h
308 05-03-2021 01:35:00 4.1 C 6.02 g/m*3 4.1 C 1.6 km/h
309 05-03-2021 01:40:00 4.1 C 6.02 g/m*3 4.1 C 0 km/h
310 05-03-2021 01:45:00 4.1 C 6.02 g/m*3 4.1 C 0 km/h
311 05-03-2021 01:50:00 4.1 C 6.02 g/m*3 4.1 C 0 km/h
312 05-03-2021 01:55:00 4.1 C 6.02 g/m*3 4.1 C 1.6 km/h
313 05-03-2021 02:00:00 4.1 C 6.02 g/m*3 4.1 C 1.6 km/h
314 05-03-2021 02:05:00 4.2 C 6.06 g/m*3 4.2 C 1.6 km/h
315 05-03-2021 02:10:00 4.2 C 6.06 g/m*3 4.2 C 0 km/h
316 05-03-2021 02:15:00 4.2 C 6.06 g/m*3 2.67 C 6.4 km/h
317 05-03-2021 02:20:00 4.2 C 6.06 g/m*3 1.77 C 9.7 km/h
318 05-03-2021 02:25:00 4.2 C 6.06 g/m*3 4.2 C 3.2 km/h
319 05-03-2021 02:30:00 4.2 C 6.06 g/m*3 2.17 C 8.1 km/h
320 05-03-2021 02:35:00 4.2 C 5.99 g/m*3 0.84 C 14.5 km/h
321 05-03-2021 02:40:00 4.1 C 5.89 g/m*3 0.72 C 14.5 km/h
322 05-03-2021 02:45:00 4.1 C 5.89 g/m*3 4.1 C 4.8 km/h
323 05-03-2021 02:50:00 4.1 C 5.89 g/m*3 2.05 C 8.1 km/h
324 05-03-2021 02:55:00 4.1 C 5.82 g/m*3 1.65 C 9.7 km/h
325 05-03-2021 03:00:00 4.1 C 5.82 g/m*3 2.05 C 8.1 km/h
Sensor: Nr:Datum:Temp:Abs-Feuchte:Windchill:Wind:
Aussen-T/F 326 05-03-2021 03:05:00 4.1 C 5.76 g/m*3 2.05 C 8.1 km/h
327 05-03-2021 03:10:00 4.1 C 5.76 g/m*3 4.1 C 4.8 km/h
328 05-03-2021 03:15:00 4.1 C 5.76 g/m*3 4.1 C 4.8 km/h
329 05-03-2021 03:20:00 4.1 C 5.82 g/m*3 4.1 C 1.6 km/h
330 05-03-2021 03:25:00 4 C 5.72 g/m*3 1.93 C 8.1 km/h
331 05-03-2021 03:30:00 3.9 C 5.68 g/m*3 2.32 C 6.4 km/h
332 05-03-2021 03:35:00 3.9 C 5.68 g/m*3 2.32 C 6.4 km/h
333 05-03-2021 03:40:00 3.9 C 5.68 g/m*3 2.32 C 6.4 km/h
334 05-03-2021 03:45:00 3.8 C 5.58 g/m*3 2.21 C 6.4 km/h
335 05-03-2021 03:50:00 3.8 C 5.58 g/m*3 2.21 C 6.4 km/h
336 05-03-2021 03:55:00 3.8 C 5.58 g/m*3 2.21 C 6.4 km/h
337 05-03-2021 04:00:00 3.8 C 5.58 g/m*3 3.8 C 4.8 km/h
338 05-03-2021 04:05:00 3.7 C 5.55 g/m*3 2.09 C 6.4 km/h
339 05-03-2021 04:10:00 3.7 C 5.48 g/m*3 3.7 C 4.8 km/h
340 05-03-2021 04:15:00 3.7 C 5.48 g/m*3 3.7 C 4.8 km/h
341 05-03-2021 04:20:00 3.7 C 5.48 g/m*3 3.7 C 4.8 km/h
342 05-03-2021 04:25:00 3.6 C 5.45 g/m*3 1.46 C 8.1 km/h
343 05-03-2021 04:30:00 3.6 C 5.39 g/m*3 1.98 C 6.4 km/h
344 05-03-2021 04:35:00 3.6 C 5.39 g/m*3 1.46 C 8.1 km/h
345 05-03-2021 04:40:00 3.6 C 5.39 g/m*3 1.46 C 8.1 km/h
346 05-03-2021 04:45:00 3.5 C 5.35 g/m*3 1.34 C 8.1 km/h
347 05-03-2021 04:50:00 3.5 C 5.41 g/m*3 1.86 C 6.4 km/h
348 05-03-2021 04:55:00 3.5 C 5.35 g/m*3 0.94 C 9.7 km/h
349 05-03-2021 05:00:00 3.4 C 5.31 g/m*3 1.23 C 8.1 km/h
350 05-03-2021 05:05:00 3.4 C 5.31 g/m*3 3.4 C 4.8 km/h
Sensor: Nr:Datum:Temp:Abs-Feuchte:Windchill:Wind:
Aussen-T/F 351 05-03-2021 05:10:00 3.3 C 5.28 g/m*3 1.63 C 6.4 km/h
352 05-03-2021 05:15:00 3.3 C 5.34 g/m*3 3.3 C 0 km/h
353 05-03-2021 05:20:00 3.3 C 5.34 g/m*3 3.3 C 0 km/h
354 05-03-2021 05:25:00 3.3 C 5.34 g/m*3 3.3 C 0 km/h
355 05-03-2021 05:30:00 3.2 C 5.36 g/m*3 3.2 C 1.6 km/h
356 05-03-2021 05:35:00 3.2 C 5.36 g/m*3 3.2 C 1.6 km/h
357 05-03-2021 05:40:00 3.2 C 5.36 g/m*3 3.2 C 0 km/h
358 05-03-2021 05:45:00 3.2 C 5.36 g/m*3 3.2 C 0 km/h
359 05-03-2021 05:50:00 3.1 C 5.33 g/m*3 3.1 C 4.8 km/h
360 05-03-2021 05:55:00 3.1 C 5.33 g/m*3 3.1 C 1.6 km/h
361 05-03-2021 06:00:00 3.1 C 5.39 g/m*3 3.1 C 1.6 km/h
362 05-03-2021 06:05:00 3.1 C 5.39 g/m*3 3.1 C 0 km/h
363 05-03-2021 06:10:00 3.1 C 5.39 g/m*3 3.1 C 1.6 km/h
364 05-03-2021 06:15:00 3.1 C 5.39 g/m*3 3.1 C 0 km/h
365 05-03-2021 06:20:00 3.1 C 5.39 g/m*3 3.1 C 0 km/h
366 05-03-2021 06:25:00 3.1 C 5.39 g/m*3 3.1 C 0 km/h
367 05-03-2021 06:30:00 3.1 C 5.39 g/m*3 3.1 C 0 km/h
368 05-03-2021 06:35:00 3.1 C 5.39 g/m*3 3.1 C 3.2 km/h
369 05-03-2021 06:40:00 3.1 C 5.39 g/m*3 3.1 C 1.6 km/h
370 05-03-2021 06:45:00 3.1 C 5.39 g/m*3 3.1 C 0 km/h
371 05-03-2021 06:50:00 3.1 C 5.39 g/m*3 3.1 C 4.8 km/h
372 05-03-2021 06:55:00 3.2 C 5.42 g/m*3 3.2 C 1.6 km/h
373 05-03-2021 07:00:00 3.2 C 5.42 g/m*3 3.2 C 3.2 km/h
374 05-03-2021 07:05:00 3.2 C 5.42 g/m*3 0.58 C 9.7 km/h
375 05-03-2021 07:10:00 3.2 C 5.42 g/m*3 3.2 C 4.8 km/h
Sensor: Nr:Datum:Temp:Abs-Feuchte:Windchill:Wind:
Aussen-T/F 376 05-03-2021 07:15:00 3.2 C 5.42 g/m*3 3.2 C 4.8 km/h
377 05-03-2021 07:20:00 3.2 C 5.42 g/m*3 3.2 C 3.2 km/h
378 05-03-2021 07:25:00 3.2 C 5.42 g/m*3 3.2 C 4.8 km/h
379 05-03-2021 07:30:00 3.2 C 5.42 g/m*3 3.2 C 4.8 km/h
380 05-03-2021 07:35:00 3.2 C 5.42 g/m*3 1.51 C 6.4 km/h
381 05-03-2021 07:40:00 3.2 C 5.48 g/m*3 3.2 C 0 km/h
382 05-03-2021 07:45:00 3.2 C 5.48 g/m*3 3.2 C 1.6 km/h
383 05-03-2021 07:50:00 3.2 C 5.48 g/m*3 3.2 C 0 km/h
384 05-03-2021 07:55:00 3.2 C 5.48 g/m*3 3.2 C 1.6 km/h
385 05-03-2021 08:00:00 3.2 C 5.48 g/m*3 3.2 C 0 km/h
386 05-03-2021 08:05:00 3.3 C 5.52 g/m*3 3.3 C 3.2 km/h
387 05-03-2021 08:10:00 3.3 C 5.52 g/m*3 3.3 C 3.2 km/h
388 05-03-2021 08:15:00 3.3 C 5.52 g/m*3 3.3 C 0 km/h
389 05-03-2021 08:20:00 3.3 C 5.52 g/m*3 3.3 C 1.6 km/h
390 05-03-2021 08:25:00 3.3 C 5.52 g/m*3 3.3 C 1.6 km/h
391 05-03-2021 08:30:00 3.4 C 5.56 g/m*3 3.4 C 0 km/h
392 05-03-2021 08:35:00 3.4 C 5.56 g/m*3 3.4 C 0 km/h
393 05-03-2021 08:40:00 3.4 C 5.56 g/m*3 3.4 C 1.6 km/h
394 05-03-2021 08:45:00 3.5 C 5.6 g/m*3 3.5 C 3.2 km/h
395 05-03-2021 08:50:00 3.6 C 5.63 g/m*3 3.6 C 3.2 km/h
396 05-03-2021 08:55:00 3.6 C 5.57 g/m*3 3.6 C 4.8 km/h
397 05-03-2021 09:00:00 3.7 C 5.61 g/m*3 3.7 C 3.2 km/h
398 05-03-2021 09:05:00 3.7 C 5.61 g/m*3 3.7 C 1.6 km/h
399 05-03-2021 09:10:00 3.8 C 5.65 g/m*3 3.8 C 1.6 km/h
400 05-03-2021 09:15:00 3.8 C 5.65 g/m*3 3.8 C 3.2 km/h
Sensor: Nr:Datum:Temp:Abs-Feuchte:Windchill:Wind:
Aussen-T/F 401 05-03-2021 09:20:00 3.9 C 5.62 g/m*3 3.9 C 4.8 km/h
402 05-03-2021 09:25:00 3.9 C 5.62 g/m*3 3.9 C 3.2 km/h
403 05-03-2021 09:30:00 3.9 C 5.56 g/m*3 3.9 C 3.2 km/h
404 05-03-2021 09:35:00 4 C 5.47 g/m*3 1.53 C 9.7 km/h
405 05-03-2021 09:40:00 4.1 C 5.5 g/m*3 2.05 C 8.1 km/h
406 05-03-2021 09:45:00 4.2 C 5.54 g/m*3 2.17 C 8.1 km/h
407 05-03-2021 09:50:00 4.2 C 5.48 g/m*3 1.77 C 9.7 km/h
408 05-03-2021 09:55:00 4.3 C 5.51 g/m*3 2.29 C 8.1 km/h
409 05-03-2021 10:00:00 4.4 C 5.55 g/m*3 4.4 C 4.8 km/h
410 05-03-2021 10:05:00 4.4 C 5.48 g/m*3 4.4 C 4.8 km/h
411 05-03-2021 10:10:00 4.4 C 5.35 g/m*3 2.4 C 8.1 km/h
412 05-03-2021 10:15:00 4.4 C 5.42 g/m*3 1.36 C 12.9 km/h
413 05-03-2021 10:20:00 4.5 C 5.39 g/m*3 1.79 C 11.3 km/h
414 05-03-2021 10:25:00 4.5 C 5.39 g/m*3 1.21 C 14.5 km/h
415 05-03-2021 10:30:00 4.6 C 5.36 g/m*3 1.61 C 12.9 km/h
416 05-03-2021 10:35:00 4.6 C 5.36 g/m*3 2.25 C 9.7 km/h
417 05-03-2021 10:40:00 4.6 C 5.29 g/m*3 1.09 C 16.1 km/h
418 05-03-2021 10:45:00 4.6 C 5.23 g/m*3 1.09 C 16.1 km/h
419 05-03-2021 10:50:00 4.7 C 5.26 g/m*3 2.03 C 11.3 km/h
420 05-03-2021 10:55:00 4.8 C 5.23 g/m*3 2.49 C 9.7 km/h
421 05-03-2021 11:00:00 4.7 C 5.2 g/m*3 2.03 C 11.3 km/h
422 05-03-2021 11:05:00 4.7 C 5.13 g/m*3 1.46 C 14.5 km/h
423 05-03-2021 11:10:00 4.7 C 5.13 g/m*3 1.73 C 12.9 km/h
424 05-03-2021 11:15:00 4.8 C 5.1 g/m*3 1.58 C 14.5 km/h
425 05-03-2021 11:20:00 4.9 C 5.13 g/m*3 1.97 C 12.9 km/h
Sensor: Nr:Datum:Temp:Abs-Feuchte:Windchill:Wind:
Aussen-T/F 426 05-03-2021 11:25:00 5.1 C 5.2 g/m*3 2.51 C 11.3 km/h
427 05-03-2021 11:30:00 5.3 C 5.13 g/m*3 2.75 C 11.3 km/h
428 05-03-2021 11:35:00 5.4 C 5.09 g/m*3 3.2 C 9.7 km/h
429 05-03-2021 11:40:00 5.6 C 5.02 g/m*3 2.11 C 17.7 km/h
430 05-03-2021 11:45:00 5.7 C 4.84 g/m*3 2.95 C 12.9 km/h
431 05-03-2021 11:50:00 5.8 C 4.94 g/m*3 3.07 C 12.9 km/h
432 05-03-2021 11:55:00 5.9 C 4.83 g/m*3 3.48 C 11.3 km/h
433 05-03-2021 12:00:00 6 C 4.86 g/m*3 3.6 C 11.3 km/h
434 05-03-2021 12:05:00 6 C 4.79 g/m*3 4.28 C 8.1 km/h
435 05-03-2021 12:10:00 5.9 C 4.61 g/m*3 3.19 C 12.9 km/h
436 05-03-2021 12:15:00 5.9 C 4.69 g/m*3 3.8 C 9.7 km/h
437 05-03-2021 12:20:00 5.9 C 4.9 g/m*3 5.9 C 4.8 km/h
438 05-03-2021 12:25:00 5.9 C 4.69 g/m*3 3.48 C 11.3 km/h
439 05-03-2021 12:30:00 6 C 4.79 g/m*3 3.6 C 11.3 km/h
440 05-03-2021 12:35:00 5.9 C 4.69 g/m*3 4.17 C 8.1 km/h
441 05-03-2021 12:40:00 5.9 C 4.83 g/m*3 4.17 C 8.1 km/h
442 05-03-2021 12:45:00 5.9 C 4.76 g/m*3 3.19 C 12.9 km/h
443 05-03-2021 12:50:00 6 C 4.72 g/m*3 3.92 C 9.7 km/h
444 05-03-2021 12:55:00 6.2 C 4.78 g/m*3 4.98 C 6.4 km/h
445 05-03-2021 13:00:00 6.4 C 4.77 g/m*3 4.08 C 11.3 km/h
446 05-03-2021 13:05:00 6.8 C 4.74 g/m*3 4.87 C 9.7 km/h
447 05-03-2021 13:10:00 7.1 C 4.84 g/m*3 5.58 C 8.1 km/h
448 05-03-2021 13:15:00 7.1 C 4.84 g/m*3 5.23 C 9.7 km/h
449 05-03-2021 13:20:00 6.9 C 4.62 g/m*3 4.68 C 11.3 km/h
450 05-03-2021 13:25:00 6.7 C 4.48 g/m*3 3.92 C 14.5 km/h
Sensor: Nr:Datum:Temp:Abs-Feuchte:Windchill:Wind:
Aussen-T/F 451 05-03-2021 13:30:00 6.5 C 4.35 g/m*3 3.92 C 12.9 km/h
452 05-03-2021 13:35:00 6.4 C 4.4 g/m*3 4.39 C 9.7 km/h
453 05-03-2021 13:40:00 6.3 C 4.29 g/m*3 4.64 C 8.1 km/h
454 05-03-2021 13:45:00 6.4 C 4.32 g/m*3 4.39 C 9.7 km/h
455 05-03-2021 13:50:00 6.4 C 4.25 g/m*3 4.75 C 8.1 km/h
456 05-03-2021 13:55:00 6.5 C 4.27 g/m*3 4.87 C 8.1 km/h
457 05-03-2021 14:00:00 6.6 C 4.45 g/m*3 5.44 C 6.4 km/h
458 05-03-2021 14:05:00 6.6 C 4.08 g/m*3 4.04 C 12.9 km/h
459 05-03-2021 14:10:00 6.6 C 4.23 g/m*3 4.32 C 11.3 km/h
460 05-03-2021 14:15:00 6.6 C 4.3 g/m*3 4.04 C 12.9 km/h
461 05-03-2021 14:20:00 6.7 C 4.41 g/m*3 4.17 C 12.9 km/h
462 05-03-2021 14:25:00 6.7 C 4.41 g/m*3 4.17 C 12.9 km/h
463 05-03-2021 14:30:00 6.6 C 4.38 g/m*3 3.57 C 16.1 km/h
464 05-03-2021 14:35:00 6.5 C 4.35 g/m*3 3.67 C 14.5 km/h
465 05-03-2021 14:40:00 6.5 C 4.35 g/m*3 3.92 C 12.9 km/h
466 05-03-2021 14:45:00 6.6 C 4.38 g/m*3 4.32 C 11.3 km/h
467 05-03-2021 14:50:00 6.5 C 4.27 g/m*3 3.67 C 14.5 km/h
468 05-03-2021 14:55:00 6.4 C 4.17 g/m*3 5.21 C 6.4 km/h
469 05-03-2021 15:00:00 6.4 C 4.17 g/m*3 4.39 C 9.7 km/h
470 05-03-2021 15:05:00 6.3 C 4.15 g/m*3 3.68 C 12.9 km/h
471 05-03-2021 15:10:00 6.4 C 4.25 g/m*3 4.39 C 9.7 km/h
472 05-03-2021 15:15:00 6.4 C 4.25 g/m*3 4.39 C 9.7 km/h
473 05-03-2021 15:20:00 6.4 C 4.17 g/m*3 4.08 C 11.3 km/h
474 05-03-2021 15:25:00 6.5 C 4.05 g/m*3 3.67 C 14.5 km/h
475 05-03-2021 15:30:00 6.5 C 3.97 g/m*3 3.23 C 17.7 km/h
Sensor: Nr:Datum:Temp:Abs-Feuchte:Windchill:Wind:
Aussen-T/F 476 05-03-2021 15:35:00 6.5 C 3.9 g/m*3 3.67 C 14.5 km/h
477 05-03-2021 15:40:00 6.6 C 4.15 g/m*3 4.32 C 11.3 km/h
478 05-03-2021 15:45:00 6.6 C 4.15 g/m*3 3.79 C 14.5 km/h
479 05-03-2021 15:50:00 6.4 C 4.17 g/m*3 3.11 C 17.7 km/h
480 05-03-2021 15:55:00 6.3 C 4.15 g/m*3 3.68 C 12.9 km/h
481 05-03-2021 16:00:00 6.3 C 4.15 g/m*3 2.79 C 19.3 km/h
482 05-03-2021 16:05:00 6.3 C 4.15 g/m*3 5.1 C 6.4 km/h
483 05-03-2021 16:10:00 6.3 C 4.07 g/m*3 4.27 C 9.7 km/h
484 05-03-2021 16:15:00 6.3 C 4 g/m*3 3.2 C 16.1 km/h
485 05-03-2021 16:20:00 6.3 C 4.07 g/m*3 3.68 C 12.9 km/h
486 05-03-2021 16:25:00 6.4 C 4.02 g/m*3 4.39 C 9.7 km/h
487 05-03-2021 16:30:00 6.4 C 4.1 g/m*3 4.08 C 11.3 km/h
488 05-03-2021 16:35:00 6.3 C 4.22 g/m*3 3.96 C 11.3 km/h
489 05-03-2021 16:40:00 6.3 C 4.29 g/m*3 3.96 C 11.3 km/h
490 05-03-2021 16:45:00 6.2 C 4.34 g/m*3 4.15 C 9.7 km/h
491 05-03-2021 16:50:00 6.2 C 4.34 g/m*3 2.86 C 17.7 km/h
492 05-03-2021 16:55:00 6.1 C 4.38 g/m*3 3.43 C 12.9 km/h
493 05-03-2021 17:00:00 6 C 4.35 g/m*3 3.31 C 12.9 km/h
494 05-03-2021 17:05:00 6 C 4.43 g/m*3 3.6 C 11.3 km/h
495 05-03-2021 17:10:00 6 C 4.43 g/m*3 3.92 C 9.7 km/h
496 05-03-2021 17:15:00 6 C 4.5 g/m*3 4.28 C 8.1 km/h
497 05-03-2021 17:20:00 5.9 C 4.4 g/m*3 3.48 C 11.3 km/h
498 05-03-2021 17:25:00 5.9 C 4.4 g/m*3 2.93 C 14.5 km/h
499 05-03-2021 17:30:00 5.9 C 4.47 g/m*3 3.19 C 12.9 km/h
500 05-03-2021 17:35:00 5.8 C 4.44 g/m*3 3.36 C 11.3 km/h
Sensor: Nr:Datum:Temp:Abs-Feuchte:Windchill:Wind:
Aussen-T/F 501 05-03-2021 17:40:00 5.8 C 4.44 g/m*3 3.07 C 12.9 km/h
502 05-03-2021 17:45:00 5.7 C 4.48 g/m*3 3.93 C 8.1 km/h
503 05-03-2021 17:50:00 5.7 C 4.48 g/m*3 3.93 C 8.1 km/h
504 05-03-2021 17:55:00 5.6 C 4.52 g/m*3 5.6 C 1.6 km/h
505 05-03-2021 18:00:00 5.6 C 4.45 g/m*3 5.6 C 4.8 km/h
506 05-03-2021 18:05:00 5.7 C 4.48 g/m*3 4.4 C 6.4 km/h
507 05-03-2021 18:10:00 5.7 C 4.48 g/m*3 5.7 C 3.2 km/h
508 05-03-2021 18:15:00 5.6 C 4.67 g/m*3 5.6 C 1.6 km/h
509 05-03-2021 18:20:00 5.6 C 4.81 g/m*3 5.6 C 1.6 km/h
510 05-03-2021 18:25:00 5.4 C 4.81 g/m*3 5.4 C 0 km/h
511 05-03-2021 18:30:00 5.3 C 4.78 g/m*3 5.3 C 0 km/h
512 05-03-2021 18:35:00 5.1 C 4.86 g/m*3 5.1 C 1.6 km/h
513 05-03-2021 18:40:00 4.8 C 4.69 g/m*3 4.8 C 1.6 km/h
514 05-03-2021 18:45:00 4.6 C 4.76 g/m*3 4.6 C 0 km/h
515 05-03-2021 18:50:00 4.3 C 4.74 g/m*3 4.3 C 0 km/h
516 05-03-2021 18:55:00 4.1 C 4.61 g/m*3 4.1 C 0 km/h
517 05-03-2021 19:00:00 3.9 C 4.67 g/m*3 3.9 C 0 km/h
518 05-03-2021 19:05:00 3.7 C 4.61 g/m*3 3.7 C 0 km/h
519 05-03-2021 19:10:00 3.4 C 4.52 g/m*3 3.4 C 0 km/h
520 05-03-2021 19:15:00 3.2 C 4.46 g/m*3 3.2 C 0 km/h
521 05-03-2021 19:20:00 2.9 C 4.43 g/m*3 2.9 C 0 km/h
522 05-03-2021 19:25:00 2.7 C 4.37 g/m*3 2.7 C 0 km/h
523 05-03-2021 19:30:00 2.4 C 4.28 g/m*3 2.4 C 0 km/h
524 05-03-2021 19:35:00 2.2 C 4.28 g/m*3 2.2 C 0 km/h
525 05-03-2021 19:40:00 2 C 4.28 g/m*3 2 C 0 km/h
Sensor: Nr:Datum:Temp:Abs-Feuchte:Windchill:Wind:
Aussen-T/F 526 05-03-2021 19:45:00 1.8 C 4.28 g/m*3 1.8 C 0 km/h
527 05-03-2021 19:50:00 1.7 C 4.3 g/m*3 1.7 C 0 km/h
528 05-03-2021 19:55:00 1.5 C 4.3 g/m*3 1.5 C 0 km/h
529 05-03-2021 20:00:00 1.4 C 4.32 g/m*3 1.4 C 4.8 km/h
530 05-03-2021 20:05:00 1.3 C 4.34 g/m*3 1.3 C 4.8 km/h
531 05-03-2021 20:10:00 1.2 C 4.31 g/m*3 1.2 C 3.2 km/h
532 05-03-2021 20:15:00 1.1 C 4.29 g/m*3 1.1 C 3.2 km/h
533 05-03-2021 20:20:00 0.9 C 4.23 g/m*3 0.9 C 4.8 km/h
534 05-03-2021 20:25:00 0.8 C 4.2 g/m*3 0.8 C 3.2 km/h
535 05-03-2021 20:30:00 0.8 C 4.25 g/m*3 0.8 C 3.2 km/h
536 05-03-2021 20:35:00 0.7 C 4.22 g/m*3 0.7 C 4.8 km/h
537 05-03-2021 20:40:00 0.7 C 4.27 g/m*3 0.7 C 4.8 km/h
538 05-03-2021 20:45:00 0.6 C 4.24 g/m*3 0.6 C 0 km/h
539 05-03-2021 20:50:00 0.5 C 4.21 g/m*3 0.5 C 4.8 km/h
540 05-03-2021 20:55:00 0.4 C 4.23 g/m*3 0.4 C 3.2 km/h
541 05-03-2021 21:00:00 0.3 C 4.16 g/m*3 0.3 C 3.2 km/h
542 05-03-2021 21:05:00 0.1 C 4.15 g/m*3 0.1 C 3.2 km/h
543 05-03-2021 21:10:00 0.1 C 4.15 g/m*3 0.1 C 3.2 km/h
544 05-03-2021 21:15:00 0 C 4.17 g/m*3 0 C 3.2 km/h
545 05-03-2021 21:20:00 -0.1 C 4.14 g/m*3 -0.1 C 0 km/h
546 05-03-2021 21:25:00 -0.1 C 4.14 g/m*3 -0.1 C 0 km/h
547 05-03-2021 21:30:00 -0.2 C 4.11 g/m*3 -0.2 C 0 km/h
548 05-03-2021 21:35:00 -0.3 C 4.08 g/m*3 -0.3 C 0 km/h
549 05-03-2021 21:40:00 -0.3 C 4.08 g/m*3 -0.3 C 0 km/h
550 05-03-2021 21:45:00 -0.4 C 4.1 g/m*3 -0.4 C 0 km/h
Sensor: Nr:Datum:Temp:Abs-Feuchte:Windchill:Wind:
Aussen-T/F 551 05-03-2021 21:50:00 -0.4 C 4.1 g/m*3 -0.4 C 0 km/h
552 05-03-2021 21:55:00 -0.5 C 4.07 g/m*3 -0.5 C 0 km/h
553 05-03-2021 22:00:00 -0.6 C 4.04 g/m*3 -0.6 C 0 km/h
554 05-03-2021 22:05:00 -0.6 C 4.04 g/m*3 -0.6 C 0 km/h
555 05-03-2021 22:10:00 -0.7 C 4.02 g/m*3 -0.7 C 0 km/h
556 05-03-2021 22:15:00 -0.7 C 4.06 g/m*3 -0.7 C 0 km/h
557 05-03-2021 22:20:00 -0.7 C 4.06 g/m*3 -0.7 C 0 km/h
558 05-03-2021 22:25:00 -0.7 C 4.06 g/m*3 -0.7 C 0 km/h
559 05-03-2021 22:30:00 -0.8 C 4.03 g/m*3 -0.8 C 0 km/h
560 05-03-2021 22:35:00 -0.8 C 4.03 g/m*3 -0.8 C 0 km/h
561 05-03-2021 22:40:00 -0.8 C 4.08 g/m*3 -0.8 C 0 km/h
562 05-03-2021 22:45:00 -0.9 C 4.05 g/m*3 -0.9 C 0 km/h
563 05-03-2021 22:50:00 -1 C 4.02 g/m*3 -1 C 0 km/h
564 05-03-2021 22:55:00 -1.1 C 4 g/m*3 -1.1 C 0 km/h
565 05-03-2021 23:00:00 -1.2 C 3.97 g/m*3 -1.2 C 0 km/h
566 05-03-2021 23:05:00 -1.2 C 3.97 g/m*3 -1.2 C 0 km/h
567 05-03-2021 23:10:00 -1.3 C 3.94 g/m*3 -1.3 C 0 km/h
568 05-03-2021 23:15:00 -1.3 C 3.94 g/m*3 -1.3 C 0 km/h
569 05-03-2021 23:20:00 -1.4 C 3.91 g/m*3 -1.4 C 0 km/h
570 05-03-2021 23:25:00 -1.4 C 3.91 g/m*3 -1.4 C 0 km/h
571 05-03-2021 23:30:00 -1.6 C 3.86 g/m*3 -1.6 C 0 km/h
572 05-03-2021 23:35:00 -1.6 C 3.86 g/m*3 -1.6 C 0 km/h
573 05-03-2021 23:40:00 -1.7 C 3.83 g/m*3 -1.7 C 0 km/h
574 05-03-2021 23:45:00 -1.7 C 3.83 g/m*3 -1.7 C 0 km/h
575 05-03-2021 23:50:00 -1.7 C 3.87 g/m*3 -1.7 C 0 km/h
Sensor: Nr:Datum:Temp:Abs-Feuchte:Windchill:Wind:
Aussen-T/F 576 05-03-2021 23:55:00 -1.8 C 3.85 g/m*3 -1.8 C 0 km/h
577 06-03-2021 00:00:00 -1.8 C 3.85 g/m*3 -1.8 C 0 km/h
578 06-03-2021 00:05:00 -1.9 C 3.82 g/m*3 -1.9 C 0 km/h
579 06-03-2021 00:10:00 -1.9 C 3.82 g/m*3 -1.9 C 0 km/h
580 06-03-2021 00:15:00 -1.9 C 3.82 g/m*3 -1.9 C 0 km/h
581 06-03-2021 00:20:00 -2 C 3.79 g/m*3 -2 C 0 km/h
582 06-03-2021 00:25:00 -2 C 3.79 g/m*3 -2 C 0 km/h
583 06-03-2021 00:30:00 -2.1 C 3.77 g/m*3 -2.1 C 0 km/h
584 06-03-2021 00:35:00 -2.1 C 3.77 g/m*3 -2.1 C 0 km/h
585 06-03-2021 00:40:00 -2.2 C 3.74 g/m*3 -2.2 C 0 km/h
586 06-03-2021 00:45:00 -2.3 C 3.71 g/m*3 -2.3 C 0 km/h
587 06-03-2021 00:50:00 -2.3 C 3.71 g/m*3 -2.3 C 0 km/h
588 06-03-2021 00:55:00 -2.3 C 3.71 g/m*3 -2.3 C 0 km/h
589 06-03-2021 01:00:00 -2.4 C 3.69 g/m*3 -2.4 C 0 km/h
590 06-03-2021 01:05:00 -2.4 C 3.69 g/m*3 -2.4 C 0 km/h
591 06-03-2021 01:10:00 -2.4 C 3.69 g/m*3 -2.4 C 0 km/h
592 06-03-2021 01:15:00 -2.5 C 3.66 g/m*3 -2.5 C 0 km/h
593 06-03-2021 01:20:00 -2.6 C 3.64 g/m*3 -2.6 C 0 km/h
594 06-03-2021 01:25:00 -2.6 C 3.64 g/m*3 -2.6 C 0 km/h
595 06-03-2021 01:30:00 -2.7 C 3.61 g/m*3 -2.7 C 0 km/h
596 06-03-2021 01:35:00 -2.7 C 3.61 g/m*3 -2.7 C 0 km/h
597 06-03-2021 01:40:00 -2.7 C 3.61 g/m*3 -2.7 C 0 km/h
598 06-03-2021 01:45:00 -2.7 C 3.61 g/m*3 -2.7 C 0 km/h
599 06-03-2021 01:50:00 -2.8 C 3.63 g/m*3 -2.8 C 0 km/h
600 06-03-2021 01:55:00 -2.8 C 3.59 g/m*3 -2.8 C 0 km/h
Sensor: Nr:Datum:Temp:Abs-Feuchte:Windchill:Wind:
Aussen-T/F 601 06-03-2021 02:00:00 -2.8 C 3.63 g/m*3 -2.8 C 0 km/h
602 06-03-2021 02:05:00 -2.8 C 3.63 g/m*3 -2.8 C 0 km/h
603 06-03-2021 02:10:00 -2.8 C 3.63 g/m*3 -2.8 C 0 km/h
604 06-03-2021 02:15:00 -2.8 C 3.63 g/m*3 -2.8 C 0 km/h
605 06-03-2021 02:20:00 -2.8 C 3.63 g/m*3 -2.8 C 0 km/h
606 06-03-2021 02:25:00 -2.9 C 3.6 g/m*3 -2.9 C 0 km/h
607 06-03-2021 02:30:00 -2.9 C 3.6 g/m*3 -2.9 C 0 km/h
608 06-03-2021 02:35:00 -3 C 3.57 g/m*3 -3 C 0 km/h
609 06-03-2021 02:40:00 -3 C 3.57 g/m*3 -3 C 0 km/h
610 06-03-2021 02:45:00 -3 C 3.57 g/m*3 -3 C 0 km/h
611 06-03-2021 02:50:00 -3.1 C 3.55 g/m*3 -3.1 C 0 km/h
612 06-03-2021 02:55:00 -3.1 C 3.55 g/m*3 -3.1 C 0 km/h
613 06-03-2021 03:00:00 -3.2 C 3.52 g/m*3 -3.2 C 0 km/h
614 06-03-2021 03:05:00 -3.2 C 3.52 g/m*3 -3.2 C 0 km/h
615 06-03-2021 03:10:00 -3.3 C 3.5 g/m*3 -3.3 C 0 km/h
616 06-03-2021 03:15:00 -3.3 C 3.5 g/m*3 -3.3 C 0 km/h
617 06-03-2021 03:20:00 -3.3 C 3.5 g/m*3 -3.3 C 0 km/h
618 06-03-2021 03:25:00 -3.3 C 3.54 g/m*3 -3.3 C 0 km/h
619 06-03-2021 03:30:00 -3.3 C 3.54 g/m*3 -3.3 C 0 km/h
620 06-03-2021 03:35:00 -3.4 C 3.51 g/m*3 -3.4 C 0 km/h
621 06-03-2021 03:40:00 -3.4 C 3.51 g/m*3 -3.4 C 0 km/h
622 06-03-2021 03:45:00 -3.4 C 3.51 g/m*3 -3.4 C 0 km/h
623 06-03-2021 03:50:00 -3.5 C 3.49 g/m*3 -3.5 C 0 km/h
624 06-03-2021 03:55:00 -3.5 C 3.49 g/m*3 -3.5 C 0 km/h
625 06-03-2021 04:00:00 -3.4 C 3.51 g/m*3 -3.4 C 0 km/h
Sensor: Nr:Datum:Temp:Abs-Feuchte:Windchill:Wind:
Aussen-T/F 626 06-03-2021 04:05:00 -3.5 C 3.49 g/m*3 -3.5 C 0 km/h
627 06-03-2021 04:10:00 -3.5 C 3.49 g/m*3 -3.5 C 0 km/h
628 06-03-2021 04:15:00 -3.6 C 3.46 g/m*3 -3.6 C 0 km/h
629 06-03-2021 04:20:00 -3.6 C 3.46 g/m*3 -3.6 C 0 km/h
630 06-03-2021 04:25:00 -3.6 C 3.46 g/m*3 -3.6 C 0 km/h
631 06-03-2021 04:30:00 -3.7 C 3.44 g/m*3 -3.7 C 0 km/h
632 06-03-2021 04:35:00 -3.7 C 3.44 g/m*3 -3.7 C 0 km/h
633 06-03-2021 04:40:00 -3.7 C 3.44 g/m*3 -3.7 C 0 km/h
634 06-03-2021 04:45:00 -3.8 C 3.41 g/m*3 -3.8 C 0 km/h
635 06-03-2021 04:50:00 -3.8 C 3.41 g/m*3 -3.8 C 0 km/h
636 06-03-2021 04:55:00 -3.8 C 3.41 g/m*3 -3.8 C 0 km/h
637 06-03-2021 05:00:00 -3.9 C 3.39 g/m*3 -3.9 C 0 km/h
638 06-03-2021 05:05:00 -3.9 C 3.43 g/m*3 -3.9 C 0 km/h
639 06-03-2021 05:10:00 -3.9 C 3.43 g/m*3 -3.9 C 0 km/h
640 06-03-2021 05:15:00 -3.9 C 3.43 g/m*3 -3.9 C 0 km/h
641 06-03-2021 05:20:00 -3.9 C 3.43 g/m*3 -3.9 C 0 km/h
642 06-03-2021 05:25:00 -4 C 3.4 g/m*3 -4 C 0 km/h
643 06-03-2021 05:30:00 -4 C 3.4 g/m*3 -4 C 0 km/h
644 06-03-2021 05:35:00 -4 C 3.4 g/m*3 -4 C 0 km/h
645 06-03-2021 05:40:00 -4.1 C 3.38 g/m*3 -4.1 C 0 km/h
646 06-03-2021 05:45:00 -4.1 C 3.38 g/m*3 -4.1 C 0 km/h
647 06-03-2021 05:50:00 -4.2 C 3.35 g/m*3 -4.2 C 0 km/h
648 06-03-2021 05:55:00 -4.2 C 3.35 g/m*3 -4.2 C 0 km/h
649 06-03-2021 06:00:00 -4.2 C 3.35 g/m*3 -4.2 C 0 km/h
650 06-03-2021 06:05:00 -4.2 C 3.35 g/m*3 -4.2 C 0 km/h
Sensor: Nr:Datum:Temp:Abs-Feuchte:Windchill:Wind:
Aussen-T/F 651 06-03-2021 06:10:00 -4.3 C 3.33 g/m*3 -4.3 C 0 km/h
652 06-03-2021 06:15:00 -4.3 C 3.33 g/m*3 -4.3 C 0 km/h
653 06-03-2021 06:20:00 -4.3 C 3.33 g/m*3 -4.3 C 0 km/h
654 06-03-2021 06:25:00 -4.3 C 3.33 g/m*3 -4.3 C 0 km/h
655 06-03-2021 06:30:00 -4.3 C 3.33 g/m*3 -4.3 C 0 km/h
656 06-03-2021 06:35:00 -4.3 C 3.33 g/m*3 -4.3 C 0 km/h
657 06-03-2021 06:40:00 -4.3 C 3.33 g/m*3 -4.3 C 0 km/h
658 06-03-2021 06:45:00 -4.3 C 3.33 g/m*3 -4.3 C 0 km/h
659 06-03-2021 06:50:00 -4.3 C 3.33 g/m*3 -4.3 C 0 km/h
660 06-03-2021 06:55:00 -4.4 C 3.31 g/m*3 -4.4 C 0 km/h
661 06-03-2021 07:00:00 -4.3 C 3.33 g/m*3 -4.3 C 0 km/h
662 06-03-2021 07:05:00 -4.4 C 3.31 g/m*3 -4.4 C 0 km/h
663 06-03-2021 07:10:00 -4.4 C 3.31 g/m*3 -4.4 C 0 km/h
664 06-03-2021 07:15:00 -4.4 C 3.31 g/m*3 -4.4 C 0 km/h
665 06-03-2021 07:20:00 -4.3 C 3.33 g/m*3 -4.3 C 0 km/h
666 06-03-2021 07:25:00 -4.3 C 3.33 g/m*3 -4.3 C 0 km/h
667 06-03-2021 07:30:00 -4.3 C 3.33 g/m*3 -4.3 C 0 km/h
668 06-03-2021 07:35:00 -4.3 C 3.37 g/m*3 -4.3 C 0 km/h
669 06-03-2021 07:40:00 -4.3 C 3.37 g/m*3 -4.3 C 0 km/h
670 06-03-2021 07:45:00 -4.3 C 3.37 g/m*3 -4.3 C 0 km/h
671 06-03-2021 07:50:00 -4.3 C 3.37 g/m*3 -4.3 C 0 km/h
672 06-03-2021 07:55:00 -4.3 C 3.37 g/m*3 -4.3 C 0 km/h
673 06-03-2021 08:00:00 -4.3 C 3.37 g/m*3 -4.3 C 0 km/h
674 06-03-2021 08:05:00 -4.3 C 3.37 g/m*3 -4.3 C 0 km/h
675 06-03-2021 08:10:00 -4.2 C 3.39 g/m*3 -4.2 C 0 km/h
Sensor: Nr:Datum:Temp:Abs-Feuchte:Windchill:Wind:
Aussen-T/F 676 06-03-2021 08:15:00 -4.2 C 3.39 g/m*3 -4.2 C 0 km/h
677 06-03-2021 08:20:00 -4.2 C 3.39 g/m*3 -4.2 C 0 km/h
678 06-03-2021 08:25:00 -4.1 C 3.41 g/m*3 -4.1 C 0 km/h
679 06-03-2021 08:30:00 -4.1 C 3.41 g/m*3 -4.1 C 0 km/h
680 06-03-2021 08:35:00 -4 C 3.44 g/m*3 -4 C 0 km/h
681 06-03-2021 08:40:00 -3.9 C 3.46 g/m*3 -3.9 C 0 km/h
682 06-03-2021 08:45:00 -3.8 C 3.49 g/m*3 -3.8 C 0 km/h
683 06-03-2021 08:50:00 -3.8 C 3.49 g/m*3 -3.8 C 0 km/h
684 06-03-2021 08:55:00 -3.7 C 3.51 g/m*3 -3.7 C 0 km/h
685 06-03-2021 09:00:00 -3.7 C 3.51 g/m*3 -3.7 C 0 km/h
686 06-03-2021 09:05:00 -3.6 C 3.54 g/m*3 -3.6 C 0 km/h
687 06-03-2021 09:10:00 -3.4 C 3.59 g/m*3 -3.4 C 0 km/h
688 06-03-2021 09:15:00 -3.3 C 3.61 g/m*3 -3.3 C 0 km/h
689 06-03-2021 09:20:00 -3.2 C 3.68 g/m*3 -3.2 C 0 km/h
690 06-03-2021 09:25:00 -3.1 C 3.71 g/m*3 -3.1 C 0 km/h
691 06-03-2021 09:30:00 -3 C 3.73 g/m*3 -3 C 0 km/h
692 06-03-2021 09:35:00 -2.9 C 3.76 g/m*3 -2.9 C 0 km/h
693 06-03-2021 09:40:00 -2.8 C 3.78 g/m*3 -2.8 C 0 km/h
694 06-03-2021 09:45:00 -2.7 C 3.81 g/m*3 -2.7 C 0 km/h
695 06-03-2021 09:50:00 -2.6 C 3.84 g/m*3 -2.6 C 0 km/h
696 06-03-2021 09:55:00 -2.5 C 3.87 g/m*3 -2.5 C 0 km/h
697 06-03-2021 10:00:00 -2.3 C 3.92 g/m*3 -2.3 C 0 km/h
698 06-03-2021 10:05:00 -2.2 C 3.95 g/m*3 -2.2 C 0 km/h
699 06-03-2021 10:10:00 -2.1 C 3.98 g/m*3 -2.1 C 0 km/h
700 06-03-2021 10:15:00 -1.9 C 4.03 g/m*3 -1.9 C 0 km/h
Sensor: Nr:Datum:Temp:Abs-Feuchte:Windchill:Wind:
Aussen-T/F 701 06-03-2021 10:20:00 -1.7 C 4.09 g/m*3 -1.7 C 0 km/h
702 06-03-2021 10:25:00 -1.5 C 4.15 g/m*3 -1.5 C 1.6 km/h
703 06-03-2021 10:30:00 -1.2 C 4.24 g/m*3 -1.2 C 0 km/h
704 06-03-2021 10:35:00 -0.9 C 4.32 g/m*3 -0.9 C 0 km/h
705 06-03-2021 10:40:00 -0.7 C 4.39 g/m*3 -0.7 C 0 km/h
706 06-03-2021 10:45:00 -0.4 C 4.48 g/m*3 -0.4 C 0 km/h
707 06-03-2021 10:50:00 -0.1 C 4.57 g/m*3 -0.1 C 0 km/h
708 06-03-2021 10:55:00 0.2 C 4.67 g/m*3 0.2 C 0 km/h
709 06-03-2021 11:00:00 0.4 C 4.73 g/m*3 0.4 C 0 km/h
710 06-03-2021 11:05:00 0.6 C 4.75 g/m*3 0.6 C 0 km/h
711 06-03-2021 11:10:00 0.8 C 4.81 g/m*3 0.8 C 0 km/h
712 06-03-2021 11:15:00 1.1 C 4.86 g/m*3 1.1 C 0 km/h
713 06-03-2021 11:20:00 1.3 C 4.87 g/m*3 1.3 C 0 km/h
714 06-03-2021 11:25:00 1.7 C 5.01 g/m*3 1.7 C 0 km/h
715 06-03-2021 11:30:00 2 C 5 g/m*3 2 C 0 km/h
716 06-03-2021 11:35:00 2.3 C 4.93 g/m*3 2.3 C 0 km/h
717 06-03-2021 11:40:00 2.6 C 4.8 g/m*3 2.6 C 0 km/h
718 06-03-2021 11:45:00 3.1 C 4.67 g/m*3 3.1 C 4.8 km/h
719 06-03-2021 11:50:00 3.4 C 4.58 g/m*3 3.4 C 4.8 km/h
720 06-03-2021 11:55:00 3.7 C 4.61 g/m*3 3.7 C 1.6 km/h
721 06-03-2021 12:00:00 4 C 4.58 g/m*3 4 C 3.2 km/h
722 06-03-2021 12:05:00 4.4 C 4.51 g/m*3 2.4 C 8.1 km/h
723 06-03-2021 12:10:00 4.8 C 4.29 g/m*3 2.15 C 11.3 km/h
724 06-03-2021 12:15:00 5.1 C 4.31 g/m*3 2.51 C 11.3 km/h
725 06-03-2021 12:20:00 5.4 C 4.33 g/m*3 2.87 C 11.3 km/h
Sensor: Nr:Datum:Temp:Abs-Feuchte:Windchill:Wind:
Aussen-T/F 726 06-03-2021 12:25:00 5.6 C 4.31 g/m*3 2.83 C 12.9 km/h
727 06-03-2021 12:30:00 5.8 C 4.37 g/m*3 4.52 C 6.4 km/h
728 06-03-2021 12:35:00 5.9 C 4.47 g/m*3 4.63 C 6.4 km/h
729 06-03-2021 12:40:00 6.2 C 4.49 g/m*3 4.98 C 6.4 km/h
730 06-03-2021 12:45:00 6.4 C 4.25 g/m*3 6.4 C 3.2 km/h
731 06-03-2021 12:50:00 6.5 C 4.12 g/m*3 5.33 C 6.4 km/h
732 06-03-2021 12:55:00 6.6 C 3.62 g/m*3 6.6 C 3.2 km/h
733 06-03-2021 13:00:00 6.6 C 3.55 g/m*3 4.99 C 8.1 km/h
734 06-03-2021 13:05:00 6.7 C 3.57 g/m*3 5.56 C 6.4 km/h
735 06-03-2021 13:10:00 6.9 C 3.39 g/m*3 4.99 C 9.7 km/h
736 06-03-2021 13:15:00 6.9 C 3.31 g/m*3 4.99 C 9.7 km/h
737 06-03-2021 13:20:00 7 C 3.33 g/m*3 5.11 C 9.7 km/h
738 06-03-2021 13:25:00 7.1 C 3.28 g/m*3 6.02 C 6.4 km/h
739 06-03-2021 13:30:00 7.2 C 3.14 g/m*3 5.04 C 11.3 km/h
740 06-03-2021 13:35:00 7.2 C 3.3 g/m*3 5.69 C 8.1 km/h
741 06-03-2021 13:40:00 7.3 C 3.32 g/m*3 5.47 C 9.7 km/h
742 06-03-2021 13:45:00 7.3 C 3.08 g/m*3 5.16 C 11.3 km/h
743 06-03-2021 13:50:00 7.3 C 3.32 g/m*3 4.44 C 16.1 km/h
744 06-03-2021 13:55:00 7.3 C 3.4 g/m*3 6.25 C 6.4 km/h
745 06-03-2021 14:00:00 7.6 C 3.14 g/m*3 5.82 C 9.7 km/h
746 06-03-2021 14:05:00 7.7 C 3.32 g/m*3 6.71 C 6.4 km/h
747 06-03-2021 14:10:00 7.7 C 3.16 g/m*3 6.71 C 6.4 km/h
748 06-03-2021 14:15:00 7.7 C 3.32 g/m*3 5.65 C 11.3 km/h
749 06-03-2021 14:20:00 7.8 C 3.35 g/m*3 7.8 C 4.8 km/h
750 06-03-2021 14:25:00 7.8 C 3.35 g/m*3 6.83 C 6.4 km/h
Sensor: Nr:Datum:Temp:Abs-Feuchte:Windchill:Wind:
Aussen-T/F 751 06-03-2021 14:30:00 7.8 C 3.18 g/m*3 6.4 C 8.1 km/h
752 06-03-2021 14:35:00 7.6 C 3.14 g/m*3 5.53 C 11.3 km/h
753 06-03-2021 14:40:00 7.4 C 3.02 g/m*3 5.58 C 9.7 km/h
754 06-03-2021 14:45:00 7.3 C 3.16 g/m*3 7.3 C 4.8 km/h
755 06-03-2021 14:50:00 7.3 C 3.24 g/m*3 5.47 C 9.7 km/h
756 06-03-2021 14:55:00 7.3 C 3.16 g/m*3 7.3 C 4.8 km/h
757 06-03-2021 15:00:00 7.4 C 3.1 g/m*3 5.58 C 9.7 km/h
758 06-03-2021 15:05:00 7.5 C 3.04 g/m*3 5.7 C 9.7 km/h
759 06-03-2021 15:10:00 7.7 C 3.08 g/m*3 5.65 C 11.3 km/h
760 06-03-2021 15:15:00 7.6 C 3.3 g/m*3 5.26 C 12.9 km/h
761 06-03-2021 15:20:00 7.6 C 3.38 g/m*3 6.16 C 8.1 km/h
762 06-03-2021 15:25:00 7.6 C 3.22 g/m*3 7.6 C 4.8 km/h
763 06-03-2021 15:30:00 7.6 C 3.14 g/m*3 5.26 C 12.9 km/h
764 06-03-2021 15:35:00 7.8 C 3.35 g/m*3 7.8 C 4.8 km/h
765 06-03-2021 15:40:00 7.9 C 3.2 g/m*3 6.52 C 8.1 km/h
766 06-03-2021 15:45:00 7.9 C 3.12 g/m*3 7.9 C 4.8 km/h
767 06-03-2021 15:50:00 7.8 C 3.02 g/m*3 5.77 C 11.3 km/h
768 06-03-2021 15:55:00 7.8 C 3.1 g/m*3 5.77 C 11.3 km/h
769 06-03-2021 16:00:00 7.9 C 3.2 g/m*3 6.52 C 8.1 km/h
770 06-03-2021 16:05:00 8.1 C 3.25 g/m*3 7.17 C 6.4 km/h
771 06-03-2021 16:10:00 8.2 C 3.18 g/m*3 6.87 C 8.1 km/h
772 06-03-2021 16:15:00 8.2 C 3.27 g/m*3 6.54 C 9.7 km/h
773 06-03-2021 16:20:00 8.2 C 3.27 g/m*3 8.2 C 1.6 km/h
774 06-03-2021 16:25:00 8.3 C 3.46 g/m*3 8.3 C 4.8 km/h
775 06-03-2021 16:30:00 8.3 C 3.29 g/m*3 7.41 C 6.4 km/h
Sensor: Nr:Datum:Temp:Abs-Feuchte:Windchill:Wind:
Aussen-T/F 776 06-03-2021 16:35:00 8.3 C 3.29 g/m*3 6.37 C 11.3 km/h
777 06-03-2021 16:40:00 8.3 C 3.37 g/m*3 7.41 C 6.4 km/h
778 06-03-2021 16:45:00 8.4 C 3.39 g/m*3 7.11 C 8.1 km/h
779 06-03-2021 16:50:00 8.4 C 3.39 g/m*3 7.52 C 6.4 km/h
780 06-03-2021 16:55:00 8.6 C 3.35 g/m*3 7.34 C 8.1 km/h
781 06-03-2021 17:00:00 8.7 C 3.29 g/m*3 7.13 C 9.7 km/h
782 06-03-2021 17:05:00 8.6 C 3.69 g/m*3 6.73 C 11.3 km/h
783 06-03-2021 17:10:00 8.6 C 3.44 g/m*3 8.6 C 4.8 km/h
784 06-03-2021 17:15:00 8.7 C 3.55 g/m*3 8.7 C 1.6 km/h
785 06-03-2021 17:20:00 9.1 C 3.99 g/m*3 9.1 C 1.6 km/h
786 06-03-2021 17:25:00 9.3 C 3.95 g/m*3 9.3 C 1.6 km/h
787 06-03-2021 17:30:00 9.3 C 4.22 g/m*3 9.3 C 3.2 km/h
788 06-03-2021 17:35:00 9.3 C 4.4 g/m*3 9.3 C 3.2 km/h
789 06-03-2021 17:40:00 9.1 C 4.08 g/m*3 8.33 C 6.4 km/h
790 06-03-2021 17:45:00 8.6 C 4.12 g/m*3 8.6 C 4.8 km/h
791 06-03-2021 17:50:00 8.1 C 3.99 g/m*3 8.1 C 4.8 km/h
792 06-03-2021 17:55:00 7.4 C 4.06 g/m*3 7.4 C 3.2 km/h
793 06-03-2021 18:00:00 6.9 C 4.08 g/m*3 6.9 C 4.8 km/h
794 06-03-2021 18:05:00 6.3 C 4 g/m*3 6.3 C 4.8 km/h
795 06-03-2021 18:10:00 5.8 C 4.01 g/m*3 4.52 C 6.4 km/h
796 06-03-2021 18:15:00 5.3 C 4.02 g/m*3 5.3 C 4.8 km/h
797 06-03-2021 18:20:00 4.8 C 4.02 g/m*3 4.8 C 4.8 km/h
798 06-03-2021 18:25:00 4.4 C 3.98 g/m*3 2.9 C 6.4 km/h
799 06-03-2021 18:30:00 4 C 3.88 g/m*3 4 C 4.8 km/h
800 06-03-2021 18:35:00 3.7 C 3.93 g/m*3 3.7 C 4.8 km/h
Sensor: Nr:Datum:Temp:Abs-Feuchte:Windchill:Wind:
Aussen-T/F 801 06-03-2021 18:40:00 3.4 C 3.85 g/m*3 3.4 C 3.2 km/h
802 06-03-2021 18:45:00 3.1 C 3.83 g/m*3 3.1 C 0 km/h
803 06-03-2021 18:50:00 2.9 C 3.78 g/m*3 2.9 C 0 km/h
804 06-03-2021 18:55:00 2.7 C 3.79 g/m*3 2.7 C 4.8 km/h
805 06-03-2021 19:00:00 2.6 C 3.76 g/m*3 2.6 C 4.8 km/h
806 06-03-2021 19:05:00 2.4 C 3.77 g/m*3 2.4 C 4.8 km/h
807 06-03-2021 19:10:00 2.3 C 3.8 g/m*3 2.3 C 3.2 km/h
808 06-03-2021 19:15:00 2.2 C 3.83 g/m*3 2.2 C 3.2 km/h
809 06-03-2021 19:20:00 2 C 3.78 g/m*3 2 C 3.2 km/h
810 06-03-2021 19:25:00 1.8 C 3.78 g/m*3 1.8 C 4.8 km/h
811 06-03-2021 19:30:00 1.7 C 3.81 g/m*3 -0.22 C 6.4 km/h
812 06-03-2021 19:35:00 1.6 C 3.84 g/m*3 1.6 C 4.8 km/h
813 06-03-2021 19:40:00 1.5 C 3.81 g/m*3 1.5 C 4.8 km/h
814 06-03-2021 19:45:00 1.4 C 3.79 g/m*3 1.4 C 3.2 km/h
815 06-03-2021 19:50:00 1.4 C 3.79 g/m*3 1.4 C 4.8 km/h
816 06-03-2021 19:55:00 1.4 C 3.79 g/m*3 1.4 C 4.8 km/h
817 06-03-2021 20:00:00 1.3 C 3.87 g/m*3 1.3 C 3.2 km/h
818 06-03-2021 20:05:00 1.2 C 3.84 g/m*3 1.2 C 4.8 km/h
819 06-03-2021 20:10:00 1.1 C 3.87 g/m*3 1.1 C 4.8 km/h
820 06-03-2021 20:15:00 0.9 C 3.81 g/m*3 -1.14 C 6.4 km/h
821 06-03-2021 20:20:00 0.8 C 3.89 g/m*3 0.8 C 4.8 km/h
822 06-03-2021 20:25:00 0.7 C 3.86 g/m*3 0.7 C 3.2 km/h
823 06-03-2021 20:30:00 0.6 C 3.84 g/m*3 0.6 C 3.2 km/h
824 06-03-2021 20:35:00 0.5 C 3.86 g/m*3 0.5 C 0 km/h
825 06-03-2021 20:40:00 0.3 C 3.81 g/m*3 0.3 C 1.6 km/h
Sensor: Nr:Datum:Temp:Abs-Feuchte:Windchill:Wind:
Aussen-T/F 826 06-03-2021 20:45:00 0.2 C 3.83 g/m*3 0.2 C 3.2 km/h
827 06-03-2021 20:50:00 0.1 C 3.85 g/m*3 0.1 C 3.2 km/h
828 06-03-2021 20:55:00 0 C 3.88 g/m*3 0 C 1.6 km/h
829 06-03-2021 21:00:00 -0.1 C 3.9 g/m*3 -0.1 C 0 km/h
830 06-03-2021 21:05:00 -0.2 C 3.87 g/m*3 -0.2 C 0 km/h
831 06-03-2021 21:10:00 -0.2 C 3.87 g/m*3 -0.2 C 0 km/h
832 06-03-2021 21:15:00 -0.2 C 3.87 g/m*3 -0.2 C 0 km/h
833 06-03-2021 21:20:00 -0.3 C 3.8 g/m*3 -0.3 C 0 km/h
834 06-03-2021 21:25:00 -0.4 C 3.77 g/m*3 -0.4 C 0 km/h
835 06-03-2021 21:30:00 -0.6 C 3.72 g/m*3 -0.6 C 0 km/h
836 06-03-2021 21:35:00 -0.7 C 3.74 g/m*3 -0.7 C 0 km/h
837 06-03-2021 21:40:00 -0.8 C 3.76 g/m*3 -0.8 C 0 km/h
838 06-03-2021 21:45:00 -0.9 C 3.78 g/m*3 -0.9 C 0 km/h
839 06-03-2021 21:50:00 -1 C 3.75 g/m*3 -1 C 0 km/h
840 06-03-2021 21:55:00 -1.1 C 3.68 g/m*3 -1.1 C 0 km/h
841 06-03-2021 22:00:00 -1.2 C 3.7 g/m*3 -1.2 C 0 km/h
842 06-03-2021 22:05:00 -1.2 C 3.7 g/m*3 -1.2 C 0 km/h
843 06-03-2021 22:10:00 -1.3 C 3.67 g/m*3 -1.3 C 0 km/h
844 06-03-2021 22:15:00 -1.4 C 3.6 g/m*3 -1.4 C 0 km/h
845 06-03-2021 22:20:00 -1.4 C 3.65 g/m*3 -1.4 C 0 km/h
846 06-03-2021 22:25:00 -1.6 C 3.6 g/m*3 -1.6 C 0 km/h
847 06-03-2021 22:30:00 -1.6 C 3.6 g/m*3 -1.6 C 0 km/h
848 06-03-2021 22:35:00 -1.7 C 3.57 g/m*3 -1.7 C 0 km/h
849 06-03-2021 22:40:00 -1.8 C 3.55 g/m*3 -1.8 C 0 km/h
850 06-03-2021 22:45:00 -1.8 C 3.55 g/m*3 -1.8 C 0 km/h
Sensor: Nr:Datum:Temp:Abs-Feuchte:Windchill:Wind:
Aussen-T/F 851 06-03-2021 22:50:00 -1.9 C 3.52 g/m*3 -1.9 C 0 km/h
852 06-03-2021 22:55:00 -2.1 C 3.52 g/m*3 -2.1 C 0 km/h
853 06-03-2021 23:00:00 -2.1 C 3.52 g/m*3 -2.1 C 0 km/h
854 06-03-2021 23:05:00 -2.1 C 3.56 g/m*3 -2.1 C 0 km/h
855 06-03-2021 23:10:00 -2.2 C 3.53 g/m*3 -2.2 C 0 km/h
856 06-03-2021 23:15:00 -2.2 C 3.53 g/m*3 -2.2 C 0 km/h
857 06-03-2021 23:20:00 -2.3 C 3.51 g/m*3 -2.3 C 0 km/h
858 06-03-2021 23:25:00 -2.3 C 3.51 g/m*3 -2.3 C 0 km/h
859 06-03-2021 23:30:00 -2.3 C 3.51 g/m*3 -2.3 C 0 km/h
860 06-03-2021 23:35:00 -2.3 C 3.51 g/m*3 -2.3 C 0 km/h
861 06-03-2021 23:40:00 -2.3 C 3.51 g/m*3 -2.3 C 0 km/h
862 06-03-2021 23:45:00 -2.4 C 3.48 g/m*3 -2.4 C 0 km/h
863 06-03-2021 23:50:00 -2.4 C 3.48 g/m*3 -2.4 C 0 km/h
864 06-03-2021 23:55:00 -2.5 C 3.5 g/m*3 -2.5 C 0 km/h

Legende:
   Min
   Max


Maximal/Minimal-Werte vom 14.04.2020 - 16.05.2020

Sensor Min Max Avg
Temp
(Aussen-T/F)
-0.1 °C
15-04-2020  06:55:00
26.2 °C
17-04-2020  18:05:00
11.98 °C

Die Daten stammen von einer Davis Vantage Pro 2 Wetter-Station und werden unter Linux mit der Software wview2wettercgi und aufbereitet. Alle Angaben erfolgen ohne Gewähr für ihre Vollständigkeit oder Richtigkeit.
Kontakt: Rainer Krienke krienke@uni-koblenz.de . Meine Webseiten an der Uni Koblenz oder privat.
Version: $Revision: 0.78 $